Ardmore, Alabama
Current Conditions -  °F | °C
As of 5:35 PM on Saturday 25 Oct 2014 (Local Time) from KFYM Reporting Station
Scattered Clouds Scattered Clouds  
Wind Chill: 72°   Ceiling: Unl
Heat Index: 72°   Visibility: 10mi
Dew Point: 57°   Wind: 5mph
Humidity: 60%   Direction: 220°SW
Pressure: 30.03"   Gusts: NA
Location:  34.99°N, 86.85°W
Report Text: KFYM 252235Z AUTO 22004KT 10SM FEW047 SCT055 22/14 A3003 RMK
Loading
Personal Weather Stations






























Interactive Weather Map
Tropical Storm Tracking
New forecast layout! Learn more

10-Day Weather Forecast

Advertisements
Track Severe Weather on mobile